Time;durP1;ratioP1;P1;durP2;ratioP2;P2;SDS_P1;SDS_P2;PMS_P1;PMS_P2;Temp;Humidity;BMP_temperature;BMP_pressure;BME280_temperature;BME280_humidity;BME280_pressure;Samples;Min_cycle;Max_cycle;Signal;HPM_P1;HPM_P2
2023/05/19 00:01:42;;;;;;;7.40;2.80;;;;;;;9.32;60.38;102090.56;7399027;19;20026;-69
2023/05/19 00:04:13;;;;;;;8.20;3.15;;;;;;;9.33;60.53;102092.31;7397907;19;20034;-68
2023/05/19 00:06:45;;;;;;;10.15;3.20;;;;;;;9.27;60.75;102091.41;7398021;19;20042;-72
2023/05/19 00:09:14;;;;;;;8.95;2.67;;;;;;;9.24;60.95;102093.16;7397670;19;20018;-68
2023/05/19 00:11:43;;;;;;;8.90;3.05;;;;;;;9.20;60.96;102089.63;7397824;19;20035;-70
2023/05/19 00:14:12;;;;;;;7.03;2.72;;;;;;;9.18;61.12;102100.97;7396958;19;20026;-69
2023/05/19 00:16:42;;;;;;;6.75;3.05;;;;;;;9.14;61.30;102094.84;7397690;19;20018;-69
2023/05/19 00:19:11;;;;;;;5.82;2.55;;;;;;;9.12;61.53;102100.06;7397622;19;20018;-69
2023/05/19 00:21:40;;;;;;;6.43;2.88;;;;;;;9.09;61.56;102096.56;7397568;19;20486;-69
2023/05/19 00:24:11;;;;;;;8.52;2.65;;;;;;;9.06;61.76;102092.16;7396110;19;20014;-69
2023/05/19 00:26:40;;;;;;;7.43;3.10;;;;;;;9.03;61.73;102094.75;7398180;19;20025;-69
2023/05/19 00:29:09;;;;;;;8.82;3.10;;;;;;;9.00;62.01;102088.63;7397573;19;20033;-69
2023/05/19 00:31:37;;;;;;;6.53;3.30;;;;;;;8.98;62.24;102088.63;7396494;19;20006;-75
2023/05/19 00:34:06;;;;;;;7.70;3.00;;;;;;;8.96;62.22;102085.13;7396494;19;20018;-69
2023/05/19 00:36:34;;;;;;;6.43;2.83;;;;;;;8.91;62.39;102082.47;7395506;19;20077;-68
2023/05/19 00:39:03;;;;;;;9.18;3.35;;;;;;;8.89;62.55;102091.19;7397325;19;20031;-68
2023/05/19 00:41:34;;;;;;;7.10;2.83;;;;;;;8.83;62.71;102089.38;7396833;19;20018;-69
2023/05/19 00:44:02;;;;;;;6.93;2.90;;;;;;;8.80;62.94;102084.13;7396207;19;20021;-68
2023/05/19 00:46:31;;;;;;;7.90;3.65;;;;;;;8.76;62.95;102083.25;7397076;19;20031;-70
2023/05/19 00:48:59;;;;;;;8.13;4.00;;;;;;;8.73;63.37;102082.34;7397035;19;20025;-68
2023/05/19 00:51:30;;;;;;;9.43;3.30;;;;;;;8.67;63.50;102082.28;7396601;19;20506;-69
2023/05/19 00:53:59;;;;;;;9.98;3.97;;;;;;;8.61;63.51;102077.91;7395941;19;20014;-69
2023/05/19 00:56:28;;;;;;;8.85;3.60;;;;;;;8.58;63.78;102089.22;7395118;19;20023;-69
2023/05/19 00:59:00;;;;;;;4.97;2.97;;;;;;;8.54;63.92;102084.81;7396312;19;20502;-69
2023/05/19 01:01:31;;;;;;;7.90;3.58;;;;;;;8.51;63.82;102084.78;7397017;19;20378;-69
2023/05/19 01:03:59;;;;;;;7.82;3.70;;;;;;;8.46;64.02;102089.97;7395318;19;20019;-68
2023/05/19 01:06:29;;;;;;;9.27;3.83;;;;;;;8.43;64.03;102089.06;7396397;19;20023;-69
2023/05/19 01:08:58;;;;;;;8.35;3.50;;;;;;;8.40;64.58;102083.78;7396442;19;20011;-69
2023/05/19 01:11:26;;;;;;;9.10;3.42;;;;;;;8.33;64.80;102088.09;7396257;19;20014;-69
2023/05/19 01:13:55;;;;;;;8.63;3.08;;;;;;;8.27;64.89;102083.66;7395938;19;20018;-68
2023/05/19 01:16:32;;;;;;;8.13;3.30;;;;;;;8.22;65.13;102085.38;7394681;19;20073;-68
2023/05/19 01:19:09;;;;;;;8.13;3.35;;;;;;;8.16;65.29;102080.06;7395875;19;20033;-69
2023/05/19 01:22:05;;;;;;;5.50;2.92;;;;;;;8.12;65.53;102080.91;7394075;19;20368;-69
2023/05/19 01:25:09;;;;;;;8.68;3.08;;;;;;;8.07;65.50;102082.59;7394042;19;20035;-69
2023/05/19 01:27:53;;;;;;;9.35;3.20;;;;;;;8.04;65.65;102077.34;7395068;19;20024;-68
2023/05/19 01:30:30;;;;;;;10.10;2.97;;;;;;;7.99;65.35;102078.16;7396307;19;20031;-69
2023/05/19 01:33:02;;;;;;;4.68;3.00;;;;;;;7.96;65.66;102082.47;7393447;19;20021;-69
2023/05/19 01:35:32;;;;;;;9.23;3.20;;;;;;;7.95;65.65;102083.38;7395299;19;20070;-69
2023/05/19 01:38:02;;;;;;;7.97;3.10;;;;;;;7.92;65.87;102072.88;7395554;19;20014;-68
2023/05/19 01:40:32;;;;;;;7.03;3.78;;;;;;;7.91;66.04;102082.47;7395265;19;20014;-69
2023/05/19 01:43:03;;;;;;;7.22;3.53;;;;;;;7.89;66.16;102080.69;7394677;19;20014;-69
2023/05/19 01:45:35;;;;;;;10.05;3.15;;;;;;;7.85;66.52;102082.38;7395722;19;20035;-69
2023/05/19 01:48:06;;;;;;;7.35;3.53;;;;;;;7.83;66.55;102081.47;7394973;19;20364;-68
2023/05/19 01:50:35;;;;;;;11.77;3.13;;;;;;;7.81;66.63;102080.59;7394928;19;20019;-69
2023/05/19 01:53:03;;;;;;;6.80;2.90;;;;;;;7.78;66.80;102080.56;7394247;19;20477;-69
2023/05/19 01:55:32;;;;;;;9.43;3.13;;;;;;;7.76;66.70;102090.09;7394288;19;20038;-69
2023/05/19 01:58:08;;;;;;;8.18;3.28;;;;;;;7.75;66.90;102085.75;7395032;19;20023;-69
2023/05/19 02:00:53;;;;;;;9.57;3.20;;;;;;;7.73;67.05;102087.47;7395319;19;20082;-68
2023/05/19 02:03:28;;;;;;;;;;;;;;;7.70;68.20;102092.66;7395320;19;20014;-69
2023/05/19 02:06:02;;;;;;;11.13;3.50;;;;;;;7.62;66.92;102093.44;7394500;19;19923;-69
2023/05/19 02:08:39;;;;;;;10.65;3.70;;;;;;;7.56;67.13;102082.91;7395184;19;20047;-67
2023/05/19 02:11:16;;;;;;;7.38;2.85;;;;;;;7.52;67.18;102085.47;7395049;19;20022;-69
2023/05/19 02:13:50;;;;;;;5.82;2.60;;;;;;;7.49;67.45;102091.53;7393848;19;20023;-67
2023/05/19 02:16:24;;;;;;;6.82;2.72;;;;;;;7.45;67.55;102081.91;7392748;19;20014;-68
2023/05/19 02:18:53;;;;;;;6.40;3.03;;;;;;;7.39;67.60;102080.06;7394879;19;20023;-67
2023/05/19 02:21:21;;;;;;;5.47;3.25;;;;;;;7.41;67.80;102082.72;7394315;19;20018;-68
2023/05/19 02:23:50;;;;;;;6.65;2.85;;;;;;;7.36;67.90;102076.56;7393181;19;20022;-68
2023/05/19 02:26:19;;;;;;;9.48;3.28;;;;;;;7.38;68.06;102078.34;7394066;19;20041;-68
2023/05/19 02:28:47;;;;;;;6.53;2.60;;;;;;;7.31;68.30;102073.91;7393967;19;20020;-68
2023/05/19 02:31:16;;;;;;;7.82;2.92;;;;;;;7.36;68.36;102079.19;7393399;19;20031;-68
2023/05/19 02:33:47;;;;;;;5.13;2.70;;;;;;;7.34;68.37;102087.88;7399874;19;20022;-68
2023/05/19 02:36:15;;;;;;;11.23;3.50;;;;;;;7.33;68.41;102075.66;7399960;19;20027;-68
2023/05/19 02:38:44;;;;;;;7.50;2.92;;;;;;;7.33;68.36;102070.44;7401006;19;20035;-68
2023/05/19 02:41:12;;;;;;;10.18;3.35;;;;;;;7.33;68.77;102064.38;7401190;19;20015;-68
2023/05/19 02:43:41;;;;;;;7.45;2.67;;;;;;;7.32;68.78;102057.38;7399781;19;20023;-67
2023/05/19 02:46:09;;;;;;;9.70;3.30;;;;;;;7.31;68.65;102066.06;7400737;19;20383;-68
2023/05/19 02:48:38;;;;;;;7.88;3.08;;;;;;;7.28;68.83;102066.00;7400690;19;20432;-68
2023/05/19 02:51:09;;;;;;;11.57;3.38;;;;;;;7.26;69.18;102066.00;7400986;19;20014;-68
2023/05/19 02:53:37;;;;;;;4.72;2.88;;;;;;;7.27;69.08;102075.59;7399881;19;20015;-67
2023/05/19 02:56:06;;;;;;;14.93;3.88;;;;;;;7.27;69.21;102069.50;7399399;19;20368;-67
2023/05/19 02:58:35;;;;;;;8.77;3.00;;;;;;;7.28;69.00;102068.63;7400663;19;20415;-68
2023/05/19 03:01:03;;;;;;;10.45;4.10;;;;;;;7.27;68.99;102062.53;7400736;19;20026;-68
2023/05/19 03:03:32;;;;;;;10.75;3.20;;;;;;;7.26;69.01;102066.00;7399302;19;20022;-68
2023/05/19 03:06:00;;;;;;;6.43;2.95;;;;;;;7.24;69.08;102054.69;7400249;19;20032;-68
2023/05/19 03:08:31;;;;;;;5.60;2.83;;;;;;;7.21;69.19;102059.84;7400238;19;20018;-67
2023/05/19 03:11:00;;;;;;;5.10;2.80;;;;;;;7.17;69.30;102056.31;7399931;19;20486;-70
2023/05/19 03:13:29;;;;;;;5.78;3.15;;;;;;;7.14;69.28;102056.28;7398564;19;20482;-68
2023/05/19 03:15:58;;;;;;;7.97;3.40;;;;;;;7.11;69.37;102061.44;7399069;19;20018;-68
2023/05/19 03:18:27;;;;;;;6.65;2.95;;;;;;;7.11;69.97;102055.34;7400082;19;20082;-67
2023/05/19 03:20:56;;;;;;;5.25;3.08;;;;;;;7.09;69.57;102062.28;7399947;19;20018;-68
2023/05/19 03:23:25;;;;;;;8.20;3.45;;;;;;;7.06;69.66;102064.84;7398904;19;20025;-69
2023/05/19 03:25:56;;;;;;;11.10;3.38;;;;;;;7.04;69.85;102067.44;7399895;19;20014;-68
2023/05/19 03:28:26;;;;;;;7.72;2.80;;;;;;;7.05;69.90;102071.81;7399400;19;20481;-68
2023/05/19 03:30:54;;;;;;;6.93;2.70;;;;;;;7.06;69.65;102070.06;7399538;19;20015;-69
2023/05/19 03:33:29;;;;;;;7.50;2.90;;;;;;;7.07;69.91;102077.91;7396325;19;20014;-68
2023/05/19 03:36:05;;;;;;;6.18;3.22;;;;;;;7.07;69.86;102083.13;7398698;19;20024;-68
2023/05/19 03:38:34;;;;;;;4.70;2.63;;;;;;;7.07;69.65;102080.53;7399204;19;20019;-68
2023/05/19 03:41:05;;;;;;;5.97;2.80;;;;;;;7.08;69.84;102078.81;7399376;19;20019;-68
2023/05/19 03:43:34;;;;;;;8.45;2.95;;;;;;;7.08;70.03;102084.03;7396706;19;20376;-68
2023/05/19 03:46:02;;;;;;;6.38;2.70;;;;;;;7.06;69.86;102075.28;7398603;19;20090;-68
2023/05/19 03:48:31;;;;;;;6.72;2.92;;;;;;;7.05;69.96;102079.66;7398306;19;20018;-68
2023/05/19 03:50:59;;;;;;;8.90;2.92;;;;;;;7.06;70.19;102085.72;7398184;19;20082;-68
2023/05/19 03:53:29;;;;;;;8.40;3.40;;;;;;;7.06;70.23;102077.91;7397153;19;20014;-69
2023/05/19 03:55:58;;;;;;;8.32;3.50;;;;;;;7.06;70.07;102080.50;7397652;19;20431;-68
2023/05/19 03:58:29;;;;;;;7.35;3.70;;;;;;;7.06;70.08;102077.91;7398035;19;20018;-68
2023/05/19 04:00:57;;;;;;;7.43;3.00;;;;;;;7.06;70.17;102081.38;7398477;19;20502;-69
2023/05/19 04:03:27;;;;;;;5.60;2.88;;;;;;;7.06;70.07;102080.50;7396811;19;20035;-68
2023/05/19 04:05:55;;;;;;;8.30;3.08;;;;;;;7.05;70.13;102083.97;7397312;19;20010;-68
2023/05/19 04:08:24;;;;;;;6.28;2.88;;;;;;;7.03;70.33;102083.97;7397818;19;20014;-68
2023/05/19 04:10:53;;;;;;;7.43;2.95;;;;;;;7.02;70.33;102082.19;7397619;19;20171;-68
2023/05/19 04:13:22;;;;;;;10.13;3.17;;;;;;;7.02;70.34;102084.81;7397138;19;20351;-68
2023/05/19 04:15:54;;;;;;;10.05;2.80;;;;;;;7.04;70.31;102090.03;7397715;19;20014;-68
2023/05/19 04:18:22;;;;;;;5.88;2.60;;;;;;;7.00;70.43;102074.34;7398434;19;20022;-68
2023/05/19 04:20:50;;;;;;;5.47;2.75;;;;;;;7.05;70.38;102081.38;7397915;19;20015;-69
2023/05/19 04:23:19;;;;;;;5.53;2.45;;;;;;;7.06;70.24;102088.34;7396707;19;20485;-69
2023/05/19 04:25:48;;;;;;;10.05;3.03;;;;;;;7.07;70.19;102084.88;7397393;19;20502;-68
2023/05/19 04:28:17;;;;;;;5.88;3.08;;;;;;;7.10;70.53;102087.53;7397658;19;20019;-68
2023/05/19 04:30:46;;;;;;;10.23;2.97;;;;;;;7.11;70.18;102089.28;7397653;19;20018;-68
2023/05/19 04:33:18;;;;;;;6.32;2.88;;;;;;;7.14;70.20;102095.44;7395717;19;20027;-68
2023/05/19 04:35:49;;;;;;;4.80;2.60;;;;;;;7.15;70.07;102091.97;7397217;19;20017;-69
2023/05/19 04:38:18;;;;;;;5.40;3.78;;;;;;;7.16;69.95;102083.25;7398073;19;20015;-68
2023/05/19 04:40:48;;;;;;;5.32;2.75;;;;;;;7.16;70.23;102093.69;7397243;19;20011;-68
2023/05/19 04:43:18;;;;;;;8.82;2.80;;;;;;;7.20;69.92;102089.41;7396533;19;20014;-69
2023/05/19 04:45:48;;;;;;;11.18;2.60;;;;;;;7.22;70.08;102097.28;7396666;19;20445;-68
2023/05/19 04:48:20;;;;;;;4.90;2.65;;;;;;;7.24;70.16;102095.53;7397572;19;20074;-68
2023/05/19 04:50:50;;;;;;;7.13;2.60;;;;;;;7.25;70.24;102098.16;7397382;19;20041;-68
2023/05/19 04:53:20;;;;;;;6.90;3.22;;;;;;;7.28;70.10;102099.94;7396947;19;20018;-69
2023/05/19 04:55:49;;;;;;;6.18;2.80;;;;;;;7.30;70.18;102099.16;7394019;19;20023;-68
2023/05/19 04:58:18;;;;;;;7.88;2.53;;;;;;;7.31;69.92;102105.22;7396450;19;20427;-69
2023/05/19 05:00:47;;;;;;;6.70;2.50;;;;;;;7.33;69.99;102096.56;7396704;19;20031;-68
2023/05/19 05:03:16;;;;;;;5.45;2.47;;;;;;;7.37;70.00;102099.19;7395118;19;20026;-68
2023/05/19 05:05:47;;;;;;;10.88;3.30;;;;;;;7.40;70.09;102101.88;7395529;19;20025;-68
2023/05/19 05:08:21;;;;;;;5.25;2.50;;;;;;;7.43;69.80;102100.19;7397596;19;20014;-68
2023/05/19 05:10:50;;;;;;;;;;;;;;;7.46;70.17;102091.50;7397291;19;20015;-68
2023/05/19 05:13:19;;;;;;;6.50;2.50;;;;;;;7.51;69.56;102089.81;7395506;19;19942;-68
2023/05/19 05:15:48;;;;;;;5.43;2.70;;;;;;;7.55;69.76;102094.22;7395975;19;20018;-68
2023/05/19 05:18:17;;;;;;;6.63;2.95;;;;;;;7.56;69.77;102084.66;7395841;19;20027;-68
2023/05/19 05:20:49;;;;;;;7.72;3.95;;;;;;;7.63;69.69;102087.38;7395525;19;20027;-67
2023/05/19 05:23:19;;;;;;;7.35;2.90;;;;;;;7.68;69.55;102078.69;7395192;19;20035;-67
2023/05/19 05:25:49;;;;;;;11.02;3.83;;;;;;;7.73;69.62;102082.25;7395493;19;20029;-69
2023/05/19 05:28:17;;;;;;;6.10;2.65;;;;;;;7.79;69.78;102087.53;7395561;19;20103;-68
2023/05/19 05:30:47;;;;;;;6.18;2.85;;;;;;;7.81;69.63;102078.84;7395570;19;20485;-68
2023/05/19 05:33:16;;;;;;;4.20;2.65;;;;;;;7.86;69.60;102080.63;7393809;19;20015;-68
2023/05/19 05:35:45;;;;;;;8.23;3.25;;;;;;;7.87;69.65;102075.41;7395067;19;20018;-68
2023/05/19 05:38:16;;;;;;;7.18;2.65;;;;;;;7.90;69.87;102077.19;7393652;19;20036;-67
2023/05/19 05:40:45;;;;;;;10.70;2.88;;;;;;;7.94;69.52;102081.63;7395322;19;20018;-67
2023/05/19 05:43:13;;;;;;;9.95;2.70;;;;;;;7.99;69.95;102077.31;7394593;19;20019;-68
2023/05/19 05:45:42;;;;;;;5.88;2.50;;;;;;;8.02;69.67;102079.94;7394561;19;20022;-67
2023/05/19 05:48:11;;;;;;;5.75;3.17;;;;;;;8.08;69.54;102081.75;7394992;19;20035;-68
2023/05/19 05:50:40;;;;;;;9.70;3.17;;;;;;;8.13;69.73;102082.69;7395132;19;20014;-68
2023/05/19 05:53:11;;;;;;;7.13;2.35;;;;;;;8.18;69.80;102075.75;7394133;19;20351;-68
2023/05/19 05:55:43;;;;;;;7.72;2.88;;;;;;;8.26;69.60;102084.53;7395165;19;20021;-67
2023/05/19 05:58:14;;;;;;;5.80;2.58;;;;;;;8.35;69.36;102072.41;7393326;19;20015;-68
2023/05/19 06:00:44;;;;;;;5.88;2.65;;;;;;;8.41;69.41;102073.34;7395059;19;20026;-68
2023/05/19 06:03:13;;;;;;;6.82;2.20;;;;;;;8.50;69.43;102079.56;7393245;19;20019;-68
2023/05/19 06:05:41;;;;;;;5.93;2.60;;;;;;;8.57;69.09;102076.13;7393891;19;20589;-68
2023/05/19 06:08:10;;;;;;;5.78;2.58;;;;;;;8.67;69.15;102077.06;7399751;19;20015;-68
2023/05/19 06:10:40;;;;;;;9.52;3.47;;;;;;;8.75;68.98;102081.47;7402242;19;20086;-68
2023/05/19 06:13:11;;;;;;;7.53;2.55;;;;;;;8.85;69.11;102077.19;7401369;19;20022;-67
2023/05/19 06:15:40;;;;;;;7.75;2.75;;;;;;;8.96;69.15;102079.91;7402001;19;20041;-68
2023/05/19 06:18:08;;;;;;;8.48;2.72;;;;;;;9.05;68.73;102079.06;7399283;19;20023;-67
2023/05/19 06:20:37;;;;;;;5.50;2.42;;;;;;;9.16;68.58;102072.13;7401535;19;20356;-67
2023/05/19 06:23:05;;;;;;;5.43;2.65;;;;;;;9.26;68.46;102073.06;7400425;19;20035;-67
2023/05/19 06:25:34;;;;;;;3.58;2.40;;;;;;;9.40;68.33;102076.66;7401238;19;20476;-67
2023/05/19 06:28:02;;;;;;;10.82;2.67;;;;;;;9.55;68.15;102081.03;7401485;19;20372;-68
2023/05/19 06:30:33;;;;;;;6.13;2.33;;;;;;;9.71;67.92;102070.63;7400744;19;20010;-68
2023/05/19 06:33:02;;;;;;;7.13;2.63;;;;;;;9.86;67.48;102075.91;7399141;19;20014;-67
2023/05/19 06:35:30;;;;;;;4.65;2.72;;;;;;;10.02;67.17;102076.84;7401043;19;20080;-69
2023/05/19 06:37:59;;;;;;;6.22;2.75;;;;;;;10.17;67.08;102072.47;7399056;19;20019;-67
2023/05/19 06:40:27;;;;;;;7.88;2.85;;;;;;;10.31;66.72;102064.63;7400888;19;20015;-67
2023/05/19 06:42:56;;;;;;;4.43;2.78;;;;;;;10.45;66.55;102069.91;7400085;19;20035;-68
2023/05/19 06:45:25;;;;;;;12.38;3.28;;;;;;;10.59;66.25;102076.03;7400619;19;20025;-68
2023/05/19 06:47:57;;;;;;;6.90;3.13;;;;;;;10.72;65.98;102069.03;7400659;19;20019;-67
2023/05/19 06:50:25;;;;;;;13.48;4.00;;;;;;;10.85;65.72;102076.00;7400213;19;20510;-67
2023/05/19 06:52:56;;;;;;;7.18;3.88;;;;;;;10.97;65.45;102080.38;7400098;19;20034;-68
2023/05/19 06:55:24;;;;;;;6.32;3.78;;;;;;;11.08;65.12;102068.09;7399922;19;20518;-67
2023/05/19 06:57:53;;;;;;;4.97;3.38;;;;;;;11.20;64.86;102076.81;7398515;19;20394;-67
2023/05/19 07:00:21;;;;;;;12.02;3.45;;;;;;;11.31;64.42;102077.66;7400305;19;20032;-67
2023/05/19 07:02:50;;;;;;;8.90;3.20;;;;;;;11.41;64.24;102079.34;7399282;19;20019;-68
2023/05/19 07:05:22;;;;;;;5.43;2.58;;;;;;;11.52;64.15;102079.28;7399906;19;20015;-68
2023/05/19 07:07:50;;;;;;;4.97;2.65;;;;;;;11.63;63.88;102078.41;7400508;19;20376;-68
2023/05/19 07:10:20;;;;;;;5.40;3.00;;;;;;;11.71;63.49;102071.34;7399924;19;20024;-68
2023/05/19 07:12:48;;;;;;;5.65;3.15;;;;;;;11.82;63.02;102069.53;7399526;19;20038;-68
2023/05/19 07:15:17;;;;;;;7.90;2.97;;;;;;;11.92;62.71;102077.34;7399048;19;20018;-68
2023/05/19 07:17:45;;;;;;;4.43;2.30;;;;;;;12.02;62.52;102072.06;7397996;19;20023;-68
2023/05/19 07:20:14;;;;;;;5.93;2.45;;;;;;;12.13;62.17;102076.38;7398789;19;20031;-68
2023/05/19 07:22:45;;;;;;;4.50;2.40;;;;;;;12.23;61.93;102078.03;7399000;19;20502;-70
2023/05/19 07:25:14;;;;;;;4.45;2.45;;;;;;;12.34;61.64;102076.22;7399350;19;20088;-68
2023/05/19 07:27:42;;;;;;;4.32;2.22;;;;;;;12.47;61.12;102082.28;7399923;19;20018;-68
2023/05/19 07:30:12;;;;;;;5.50;2.60;;;;;;;12.61;60.73;102082.16;7400075;19;20023;-68
2023/05/19 07:32:40;;;;;;;5.63;2.88;;;;;;;12.75;60.58;102082.03;7398895;19;20011;-69
2023/05/19 07:35:09;;;;;;;5.80;2.33;;;;;;;12.87;60.08;102084.50;7399261;19;20014;-68
2023/05/19 07:37:39;;;;;;;9.18;2.80;;;;;;;12.97;59.68;102079.19;7397338;19;20029;-68
2023/05/19 07:40:11;;;;;;;4.72;2.42;;;;;;;13.08;59.44;102072.03;7398967;19;20014;-67
2023/05/19 07:42:40;;;;;;;4.00;2.08;;;;;;;13.19;59.06;102071.91;7398605;19;20018;-68
2023/05/19 07:45:09;;;;;;;5.97;2.83;;;;;;;13.32;58.54;102067.34;7398639;19;20022;-68
2023/05/19 07:47:38;;;;;;;5.53;2.88;;;;;;;13.43;57.82;102062.84;7398384;19;20011;-68
2023/05/19 07:50:08;;;;;;;6.55;3.03;;;;;;;13.55;57.63;102056.56;7397981;19;20508;-69
2023/05/19 07:52:37;;;;;;;3.40;2.35;;;;;;;13.67;57.31;102060.78;7398467;19;20027;-69
2023/05/19 07:55:06;;;;;;;4.35;2.60;;;;;;;13.76;56.85;102063.31;7398331;19;20078;-69
2023/05/19 07:57:37;;;;;;;4.50;2.85;;;;;;;13.86;56.32;102069.31;7397519;19;20031;-69
2023/05/19 08:00:08;;;;;;;6.00;2.40;;;;;;;13.95;55.31;102065.66;7398938;19;20075;-68
2023/05/19 08:02:37;;;;;;;3.30;2.10;;;;;;;14.02;55.54;102056.78;7398471;19;20018;-69
2023/05/19 08:05:08;;;;;;;5.45;2.60;;;;;;;14.11;55.08;102063.69;7398428;19;20074;-68
2023/05/19 08:07:36;;;;;;;6.97;2.58;;;;;;;14.20;54.52;102060.03;7398268;19;20041;-68
2023/05/19 08:10:05;;;;;;;6.50;2.17;;;;;;;14.30;54.40;102051.91;7398095;19;20481;-68
2023/05/19 08:12:36;;;;;;;3.17;2.15;;;;;;;14.41;54.02;102059.69;7398175;19;20015;-67
2023/05/19 08:15:06;;;;;;;3.25;1.73;;;;;;;14.50;53.82;102059.50;7395593;19;20482;-70
2023/05/19 08:17:34;;;;;;;3.30;2.00;;;;;;;14.61;53.65;102054.06;7397144;19;20010;-68
2023/05/19 08:20:05;;;;;;;5.57;1.80;;;;;;;14.71;53.17;102048.63;7395884;19;20014;-67
2023/05/19 08:22:33;;;;;;;4.18;1.90;;;;;;;14.81;52.44;102040.50;7396912;19;20021;-69
2023/05/19 08:25:02;;;;;;;3.78;2.40;;;;;;;14.92;51.83;102042.94;7396261;19;20027;-68
2023/05/19 08:27:31;;;;;;;3.63;2.03;;;;;;;15.08;51.59;102048.81;7397110;19;20014;-68
2023/05/19 08:30:02;;;;;;;7.28;1.80;;;;;;;15.22;50.99;102045.03;7396058;19;20481;-68
2023/05/19 08:32:31;;;;;;;4.38;1.83;;;;;;;15.33;50.56;102043.03;7396513;19;20006;-70
2023/05/19 08:34:59;;;;;;;3.45;1.75;;;;;;;15.43;49.72;102031.34;7396872;19;20388;-70
2023/05/19 08:37:28;;;;;;;5.72;1.70;;;;;;;15.56;49.26;102039.03;7395916;19;20010;-70
2023/05/19 08:39:56;;;;;;;3.38;1.50;;;;;;;15.64;47.69;102034.41;7396658;19;20011;-70
2023/05/19 08:42:25;;;;;;;2.80;1.30;;;;;;;15.74;47.07;102037.72;7396761;19;20014;-70
2023/05/19 08:44:53;;;;;;;3.03;1.08;;;;;;;15.79;46.60;102028.75;7394968;19;20085;-69
2023/05/19 08:47:26;;;;;;;4.18;2.10;;;;;;;15.88;46.60;102033.00;7396229;19;20031;-68
2023/05/19 08:50:03;;;;;;;2.75;1.48;;;;;;;15.93;46.51;102028.47;7397269;19;20029;-70
2023/05/19 08:52:44;;;;;;;3.70;1.60;;;;;;;16.08;44.28;102034.31;7397061;19;20090;-69
2023/05/19 08:55:20;;;;;;;3.70;1.10;;;;;;;16.17;44.77;102027.94;7396355;19;20025;-69
2023/05/19 08:57:50;;;;;;;2.40;1.40;;;;;;;16.20;44.35;102015.50;7396266;19;20022;-69
2023/05/19 09:00:21;;;;;;;2.50;1.30;;;;;;;16.28;44.52;102015.31;7396862;19;20070;-70
2023/05/19 09:02:53;;;;;;;3.58;1.40;;;;;;;16.34;44.50;102017.78;7395922;19;20029;-71
2023/05/19 09:05:22;;;;;;;5.38;1.60;;;;;;;16.43;44.46;102011.41;7395609;19;20037;-70
2023/05/19 09:07:50;;;;;;;3.72;1.60;;;;;;;16.53;44.09;102009.34;7394441;19;20014;-70
2023/05/19 09:10:19;;;;;;;4.47;1.55;;;;;;;16.60;44.06;102008.28;7395710;19;20031;-70
2023/05/19 09:12:50;;;;;;;2.90;1.77;;;;;;;16.68;43.83;102001.00;7394929;19;20018;-71
2023/05/19 09:15:19;;;;;;;2.80;1.17;;;;;;;16.73;43.41;101992.91;7396015;19;20010;-69
2023/05/19 09:17:49;;;;;;;2.28;1.35;;;;;;;16.78;43.53;101991.88;7395111;19;20033;-69
2023/05/19 09:20:20;;;;;;;3.45;1.52;;;;;;;16.89;42.84;101994.22;7395104;19;20017;-69
2023/05/19 09:22:49;;;;;;;4.05;1.92;;;;;;;16.94;43.03;101997.63;7394118;19;20015;-70
2023/05/19 09:25:21;;;;;;;4.35;1.42;;;;;;;17.03;42.69;101996.50;7395008;19;20015;-69
2023/05/19 09:27:50;;;;;;;2.17;1.23;;;;;;;17.14;42.74;101987.41;7395488;19;20027;-69
2023/05/19 09:30:20;;;;;;;4.20;1.40;;;;;;;17.24;42.26;101983.56;7394781;19;20011;-69
2023/05/19 09:33:03;;;;;;;4.00;1.30;;;;;;;17.33;41.28;101983.25;7394430;19;20033;-69
2023/05/19 09:35:36;;;;;;;5.32;1.35;;;;;;;17.43;41.06;101989.16;7395009;19;20540;-69
2023/05/19 09:38:05;;;;;;;1.55;1.08;;;;;;;17.46;42.08;101994.34;7394927;19;20023;-69
2023/05/19 09:40:34;;;;;;;3.05;1.27;;;;;;;17.48;41.79;101987.22;7394855;19;20505;-69
2023/05/19 09:43:07;;;;;;;3.80;1.48;;;;;;;17.50;40.87;101987.19;7392734;19;20019;-69
2023/05/19 09:45:35;;;;;;;3.05;1.25;;;;;;;17.51;41.59;101991.56;7395626;19;20018;-70
2023/05/19 09:48:06;;;;;;;2.05;1.38;;;;;;;17.53;41.22;101984.44;7394583;19;20545;-69
2023/05/19 09:50:37;;;;;;;4.47;2.05;;;;;;;17.61;41.64;101984.19;7395504;19;20018;-69
2023/05/19 09:53:06;;;;;;;8.90;2.70;;;;;;;17.66;41.38;101980.47;7394788;19;20019;-69
2023/05/19 09:55:34;;;;;;;5.28;1.20;;;;;;;17.69;41.16;101972.44;7397191;19;20023;-69
2023/05/19 09:58:04;;;;;;;3.03;1.40;;;;;;;17.72;41.66;101972.31;7394110;19;20018;-68
2023/05/19 10:00:34;;;;;;;2.83;1.40;;;;;;;17.75;40.98;101974.88;7395051;19;20014;-66
2023/05/19 10:03:06;;;;;;;2.20;1.45;;;;;;;17.80;40.31;101969.41;7393213;19;20086;-68
2023/05/19 10:05:38;;;;;;;2.05;1.17;;;;;;;17.84;40.15;101970.19;7395166;19;20014;-68
2023/05/19 10:08:09;;;;;;;5.47;2.20;;;;;;;17.86;40.13;101971.00;7394878;19;20015;-71
2023/05/19 10:10:38;;;;;;;3.30;1.38;;;;;;;17.86;39.94;101978.97;7394258;19;20029;-65
2023/05/19 10:13:07;;;;;;;3.80;1.90;;;;;;;17.86;39.50;101965.69;7394252;19;20039;-67
2023/05/19 10:15:38;;;;;;;6.43;1.83;;;;;;;17.84;38.62;101965.72;7394076;19;20395;-67
2023/05/19 10:18:10;;;;;;;5.32;1.95;;;;;;;17.89;39.56;101971.78;7395364;19;20010;-69
2023/05/19 10:20:42;;;;;;;3.38;1.65;;;;;;;17.96;39.08;101972.47;7395168;19;20070;-68
2023/05/19 10:23:11;;;;;;;6.07;1.83;;;;;;;18.03;39.43;101957.19;7394203;19;20025;-69
2023/05/19 10:25:41;;;;;;;2.47;1.23;;;;;;;18.13;38.96;101957.75;7394166;19;20021;-69
2023/05/19 10:28:14;;;;;;;2.78;1.23;;;;;;;18.20;38.75;101965.44;7393559;19;20028;-67
2023/05/19 10:30:46;;;;;;;4.18;2.83;;;;;;;18.29;38.84;101956.31;7394402;19;20015;-69
2023/05/19 10:33:17;;;;;;;4.43;1.40;;;;;;;18.39;38.79;101954.19;7394529;19;20007;-67
2023/05/19 10:36:08;;;;;;;3.88;2.20;;;;;;;18.53;38.45;101953.69;7399727;19;20022;-68
2023/05/19 10:38:44;;;;;;;7.50;4.78;;;;;;;18.70;37.71;101947.75;7391495;19;20019;-69
2023/05/19 10:41:18;;;;;;;3.67;2.15;;;;;;;18.84;37.83;101936.59;7393079;19;20481;-69
2023/05/19 10:44:00;;;;;;;2.13;1.33;;;;;;;18.99;37.62;101938.75;7392482;19;20019;-68
2023/05/19 10:46:30;;;;;;;3.70;1.58;;;;;;;19.12;37.54;101940.91;7393613;19;20036;-67
2023/05/19 10:48:59;;;;;;;4.25;1.65;;;;;;;19.24;37.78;101935.13;7393199;19;20015;-67
2023/05/19 10:51:34;;;;;;;2.78;1.90;;;;;;;19.32;37.14;101948.13;7393192;19;20100;-68
2023/05/19 10:54:06;;;;;;;7.15;2.15;;;;;;;19.33;37.29;101942.72;7396145;19;20479;-70
2023/05/19 10:56:35;;;;;;;3.58;1.35;;;;;;;19.32;37.21;101932.16;7401064;19;20014;-70
2023/05/19 10:59:05;;;;;;;2.50;1.38;;;;;;;19.34;37.32;101938.28;7398838;19;20018;-67
2023/05/19 11:01:37;;;;;;;3.88;1.85;;;;;;;19.39;36.92;101935.44;7400018;19;20011;-69
2023/05/19 11:04:10;;;;;;;2.70;1.45;;;;;;;19.41;37.01;101939.78;7398060;19;20018;-69
2023/05/19 11:06:42;;;;;;;4.03;1.70;;;;;;;19.45;36.20;101933.41;7399901;19;20015;-69
2023/05/19 11:09:15;;;;;;;2.47;1.58;;;;;;;19.59;36.29;101935.50;7400858;19;20031;-67
2023/05/19 11:11:49;;;;;;;3.08;1.40;;;;;;;19.68;35.29;101919.13;7399795;19;20018;-67
2023/05/19 11:14:20;;;;;;;3.35;1.35;;;;;;;19.81;35.96;101918.63;7397709;19;20070;-68
2023/05/19 11:16:49;;;;;;;2.63;1.40;;;;;;;19.92;35.80;101903.09;7398572;19;20015;-68
2023/05/19 11:19:27;;;;;;;2.08;1.50;;;;;;;19.90;34.81;101915.59;7397126;19;20082;-69
2023/05/19 11:22:08;;;;;;;3.22;1.35;;;;;;;19.83;35.16;101912.34;7398970;19;20074;-68
2023/05/19 11:24:38;;;;;;;4.05;1.48;;;;;;;19.69;35.77;101907.56;7396587;19;20032;-67
2023/05/19 11:27:20;;;;;;;6.13;1.20;;;;;;;19.62;35.68;101906.09;7398980;19;20027;-68
2023/05/19 11:29:50;;;;;;;2.85;1.25;;;;;;;19.57;36.23;101912.53;7398113;19;20022;-68
2023/05/19 11:32:19;;;;;;;1.90;0.85;;;;;;;19.54;35.95;101914.38;7398447;19;20397;-69
2023/05/19 11:34:50;;;;;;;4.70;1.10;;;;;;;19.49;36.16;101910.19;7395948;19;20018;-67
2023/05/19 11:37:21;;;;;;;4.18;1.10;;;;;;;19.49;35.23;101910.19;7398977;19;20045;-67
2023/05/19 11:39:49;;;;;;;2.10;1.10;;;;;;;19.49;35.60;101905.72;7397355;19;20031;-67
2023/05/19 11:42:18;;;;;;;2.30;1.23;;;;;;;19.52;36.14;101908.28;7398283;19;20478;-70
2023/05/19 11:44:47;;;;;;;3.08;1.50;;;;;;;19.66;35.44;101906.81;7396516;19;20018;-69